Latest Weather Observations for Luncheon Hill

IDT60801

Issued at 3:31 pm EST Saturday 23 May 2015 (issued every 30 minutes, with the page automatically refreshed every 10 minutes)

About weather observations | Map of weather stations | Latest weather observations for TAS | Other Formats
Station Details ID: 091259 Name: LUNCHEON HILL (FORESTRY) Lat: -41.15 Lon: 145.15 Height: 344.0 m
Data from the previous 72 hours. | See also: Recent months at Luncheon Hill
Date/Time
EST
Temp
°C
App
Temp
°C
Dew
Point
Rel
Hum
%
Delta-T
°C
Wind Press
QNH
hPa
Press
MSL
hPa
Rain
since 9 am
mm
Dir
 
Spd
km/h
Gust
km/h
Spd
kts
Gust
kts
23/03:30pm 9.5 4.3 5.7 77 1.8 S 22 41 12 22 - - 0.0
23/03:00pm 10.2 5.0 5.6 73 2.1 S 22 35 12 19 - - 0.0
23/02:30pm 10.7 5.6 5.9 72 2.3 SSW 22 30 12 16 - - 0.0
23/02:00pm 11.3 7.0 6.8 74 2.2 S 19 30 10 16 - - 0.0
23/01:30pm 11.2 6.3 6.9 75 2.1 SSW 22 39 12 21 - - 0.0
23/01:00pm 10.9 5.6 6.6 75 2.1 S 24 39 13 21 - - 0.0
23/12:30pm 10.8 5.5 6.7 76 2.0 S 24 41 13 22 - - 0.0
23/12:00pm 10.3 3.7 6.1 75 2.0 SSW 30 46 16 25 - - 0.0
23/11:30am 10.5 5.1 6.5 76 1.9 SSW 24 39 13 21 - - 0.0
23/11:00am 9.9 4.1 6.4 79 1.7 S 26 39 14 21 - - 0.0
23/10:30am 9.3 3.8 5.7 78 1.7 SSW 24 43 13 23 - - 0.0
23/10:00am 8.8 2.1 5.7 81 1.4 SSW 30 50 16 27 - - 0.0
23/09:54am 8.7 2.4 5.8 82 1.3 SSW 28 46 15 25 - - 0.0
23/09:30am 8.8 3.3 5.9 82 1.3 S 24 39 13 21 - - 0.0
23/09:00am 7.8 2.3 5.8 87 0.9 SSW 24 35 13 19 - - 0.2
23/08:30am 6.9 0.6 5.5 91 0.6 S 28 44 15 24 - - 0.2
23/08:00am 6.0 0.9 5.9 99 0.0 S 22 32 12 17 - - 0.2
23/07:30am 5.7 -0.7 5.4 98 0.1 S 28 39 15 21 - - 0.2
23/07:00am 5.8 0.1 5.1 95 0.3 S 24 35 13 19 - - 0.2
23/06:30am 5.4 -0.4 4.5 94 0.4 S 24 33 13 18 - - 0.2
23/06:00am 5.4 -0.4 4.5 94 0.4 SSW 24 35 13 19 - - 0.2
23/05:30am 5.1 -1.1 4.4 95 0.3 S 26 39 14 21 - - 0.2
23/05:00am 5.1 -0.7 4.4 95 0.3 S 24 35 13 19 - - 0.2
23/04:30am 5.3 -0.9 4.4 94 0.4 SSW 26 43 14 23 - - 0.2
23/04:00am 5.3 -0.9 4.4 94 0.4 S 26 41 14 22 - - 0.0
23/03:30am 5.5 -1.4 4.8 95 0.3 S 30 46 16 25 - - 0.0
23/03:20am 5.3 -1.2 4.7 96 0.3 S 28 48 15 26 - - 0.0
23/03:00am 5.2 -1.0 4.5 95 0.3 SSW 26 46 14 25 - - 0.0
23/02:51am 5.3 -1.2 4.6 95 0.3 S 28 46 15 25 - - 0.0
23/02:30am 5.4 -0.7 4.8 96 0.3 SSW 26 41 14 22 - - 0.0
23/02:00am 5.7 -0.3 5.1 96 0.3 SSW 26 44 14 24 - - 0.0
23/01:30am 5.8 -0.5 5.5 98 0.1 S 28 56 15 30 - - 0.0
23/01:00am 5.7 -0.7 5.4 98 0.1 S 28 48 15 26 - - 0.0
23/12:42am 5.9 -0.4 5.6 98 0.1 S 28 46 15 25 - - 0.0
23/12:30am 5.8 -0.2 5.5 98 0.1 SSW 26 46 14 25 - - 0.0
23/12:03am 6.0 -0.3 5.9 99 0.0 S 28 46 15 25 - - 0.0
23/12:00am 6.0 0.1 5.9 99 0.0 S 26 41 14 22 - - 0.0
 
Date/Time
EST
Temp
°C
App
Temp
°C
Dew
Point
Rel
Hum
%
Delta-T
°C
Wind Press
QNH
hPa
Press
MSL
hPa
Rain
since 9 am
mm
Dir
 
Spd
km/h
Gust
km/h
Spd
kts
Gust
kts
22/11:30pm 6.2 0.4 6.1 99 0.0 SSW 26 46 14 25 - - 0.0
22/11:00pm 6.2 0.4 6.1 99 0.0 SSW 26 39 14 21 - - 0.0
22/10:30pm 6.5 0.7 6.4 99 0.0 SSW 26 39 14 21 - - 0.0
22/10:00pm 6.6 1.2 6.5 99 0.0 SSW 24 35 13 19 - - 0.0
22/09:30pm 6.6 1.6 6.5 99 0.0 SSW 22 32 12 17 - - 0.0
22/09:00pm 6.4 1.7 6.1 98 0.1 SSW 20 28 11 15 - - 0.0
22/08:30pm 6.4 1.6 5.5 94 0.4 SSW 20 30 11 16 - - 0.0
22/08:00pm 6.4 0.8 5.2 92 0.5 SSW 24 39 13 21 - - 0.0
22/07:30pm 6.6 0.1 4.6 87 0.9 SSW 28 41 15 22 - - 0.0
22/07:00pm 6.2 0.0 4.2 87 0.9 SSW 26 41 14 22 - - 0.0
22/06:30pm 6.4 1.6 4.6 88 0.8 SSW 19 32 10 17 - - 0.0
22/06:00pm 6.6 1.2 4.4 86 1.0 S 22 39 12 21 - - 0.0
22/05:30pm 6.7 0.9 4.4 85 1.0 SSW 24 39 13 21 - - 0.0
22/05:00pm 6.7 0.9 4.4 85 1.0 SSW 24 33 13 18 - - 0.0
22/04:30pm 7.1 0.5 4.2 82 1.3 S 28 46 15 25 - - 0.0
22/04:00pm 7.8 2.1 4.9 82 1.3 SSW 24 39 13 21 - - 0.0
22/03:30pm 8.0 2.2 4.6 79 1.5 S 24 46 13 25 - - 0.0
22/03:00pm 8.6 3.2 4.6 76 1.8 SSW 22 37 12 20 - - 0.0
22/02:30pm 8.5 2.8 4.9 78 1.6 SSW 24 39 13 21 - - 0.0
22/02:00pm 8.6 3.6 4.6 76 1.8 S 20 35 11 19 - - 0.0
22/01:30pm 8.3 1.3 4.1 75 1.9 S 30 48 16 26 - - 0.0
22/01:25pm 8.5 1.9 4.3 75 1.9 S 28 48 15 26 - - 0.0
22/01:00pm 8.7 2.6 4.7 76 1.8 S 26 39 14 21 - - 0.0
22/12:30pm 8.1 0.7 4.1 76 1.8 S 32 54 17 29 - - 0.0
22/12:02pm 8.2 1.2 4.2 76 1.8 S 30 50 16 27 - - 0.0
22/12:00pm 8.0 1.0 4.0 76 1.8 SSW 30 44 16 24 - - 0.0
22/11:30am 7.5 0.1 3.9 78 1.6 S 32 50 17 27 - - 0.0
22/11:21am 7.5 0.8 3.7 77 1.7 S 28 48 15 26 - - 0.0
22/11:00am 7.4 0.8 4.2 80 1.4 SSW 28 43 15 23 - - 0.0
22/10:30am 7.4 2.4 4.7 83 1.2 S 20 35 11 19 - - 0.0
22/10:00am 7.4 3.4 4.9 84 1.1 S 15 20 8 11 - - 0.0
22/09:30am 6.3 0.8 4.1 86 1.0 S 22 30 12 16 - - 0.0
22/09:00am 6.4 1.8 3.9 84 1.1 S 17 24 9 13 - - 0.2
22/08:30am 5.7 0.6 4.2 90 0.7 S 20 28 11 15 - - 0.2
22/08:00am 5.1 -0.1 3.6 90 0.6 SSW 20 30 11 16 - - 0.2
22/07:30am 4.7 0.0 3.4 91 0.5 S 17 22 9 12 - - 0.2
22/07:00am 4.4 0.4 3.1 91 0.5 S 13 19 7 10 - - 0.2
22/06:30am 4.1 -0.6 2.9 92 0.5 S 17 24 9 13 - - 0.2
22/06:00am 3.3 -1.6 2.1 92 0.5 S 17 24 9 13 - - 0.2
22/05:30am 3.0 -1.1 2.0 93 0.4 SSE 13 20 7 11 - - 0.2
22/05:00am 3.2 -2.2 2.2 93 0.4 SSE 20 30 11 16 - - 0.2
22/04:30am 3.1 -2.7 2.5 96 0.2 S 22 33 12 18 - - 0.2
22/04:00am 2.8 -2.6 2.5 98 0.1 S 20 28 11 15 - - 0.2
22/03:30am 3.0 -2.1 2.9 99 0.0 S 19 22 10 12 - - 0.2
22/03:00am 3.1 -1.7 2.8 98 0.1 S 17 20 9 11 - - 0.2
22/02:30am 3.5 -1.6 3.2 98 0.1 S 19 20 10 11 - - 0.2
22/02:00am 3.8 -1.2 3.4 97 0.2 S 19 24 10 13 - - 0.2
22/01:30am 4.0 -1.2 3.6 97 0.2 S 20 26 11 14 - - 0.2
22/01:00am 4.1 -0.9 3.7 97 0.2 S 19 24 10 13 - - 0.2
22/12:30am 4.3 -0.3 3.9 97 0.2 S 17 20 9 11 - - 0.2
22/12:00am 4.8 0.7 4.4 97 0.2 S 15 19 8 10 - - 0.2
 
Date/Time
EST
Temp
°C
App
Temp
°C
Dew
Point
Rel
Hum
%
Delta-T
°C
Wind Press
QNH
hPa
Press
MSL
hPa
Rain
since 9 am
mm
Dir
 
Spd
km/h
Gust
km/h
Spd
kts
Gust
kts
21/11:30pm 5.0 1.3 4.3 95 0.3 S 13 17 7 9 - - 0.2
21/11:00pm 6.0 2.4 5.0 93 0.4 SSW 13 19 7 10 - - 0.2
21/10:30pm 6.5 3.4 5.6 94 0.4 SSW 11 13 6 7 - - 0.2
21/10:00pm 6.5 3.4 5.6 94 0.4 S 11 13 6 7 - - 0.2
21/09:30pm 6.6 3.1 5.4 92 0.5 SSW 13 15 7 8 - - 0.2
21/09:00pm 6.7 3.6 5.7 93 0.5 SSW 11 13 6 7 - - 0.2
21/08:30pm 6.8 4.1 5.6 92 0.5 SSW 9 13 5 7 - - 0.2
21/08:00pm 7.0 4.0 5.9 93 0.5 S 11 15 6 8 - - 0.2
21/07:30pm 7.0 4.3 5.8 92 0.5 SSE 9 13 5 7 - - 0.2
21/07:00pm 7.1 4.1 6.2 94 0.4 SSE 11 15 6 8 - - 0.2
21/06:30pm 7.4 3.7 6.2 92 0.6 SSW 15 20 8 11 - - 0.2
21/06:00pm 7.8 4.5 6.3 90 0.7 SSW 13 17 7 9 - - 0.2
21/05:30pm 8.3 5.0 6.6 89 0.8 SSW 13 17 7 9 - - 0.2
21/05:00pm 8.7 5.9 6.8 88 0.9 SSW 11 15 6 8 - - 0.2
21/04:30pm 9.2 6.5 7.2 87 1.0 S 11 15 6 8 - - 0.2
21/04:00pm 9.8 7.0 7.1 83 1.3 SSW 11 17 6 9 - - 0.2
21/03:30pm 10.3 7.3 7.7 84 1.3 SSW 13 17 7 9 - - 0.2
21/03:00pm 10.7 8.1 7.6 81 1.5 SSW 11 17 6 9 - - 0.2
21/02:30pm 11.2 8.6 7.9 80 1.6 WNW 11 19 6 10 - - 0.2
21/02:00pm 13.3 11.1 8.0 70 2.7 W 9 15 5 8 - - 0.2
21/01:30pm 13.6 11.7 7.6 67 3.0 WNW 7 13 4 7 - - 0.2
21/01:00pm 13.5 11.1 6.8 64 3.3 NW 9 17 5 9 - - 0.2
21/12:30pm 13.5 11.7 7.9 69 2.8 NE 7 20 4 11 - - 0.2
21/12:00pm 11.9 9.7 6.2 68 2.7 S 7 11 4 6 - - 0.2
21/11:30am 11.6 9.1 6.7 72 2.4 S 9 15 5 8 - - 0.2
21/11:00am 11.5 8.7 7.0 74 2.2 SSE 11 17 6 9 - - 0.2
21/10:30am 9.6 7.4 6.0 78 1.7 SSE 7 11 4 6 - - 0.2
21/10:00am 8.2 5.2 5.8 85 1.1 S 11 13 6 7 - - 0.2
21/09:30am 7.2 4.0 5.3 88 0.9 S 11 15 6 8 - - 0.2
21/09:00am 6.3 3.0 4.6 89 0.8 S 11 15 6 8 - - 0.6
21/08:30am 6.0 2.4 4.8 92 0.5 S 13 17 7 9 - - 0.6
21/08:00am 4.8 0.3 4.4 97 0.2 S 17 20 9 11 - - 0.6
21/07:30am 3.7 -0.6 3.3 97 0.2 S 15 20 8 11 - - 0.6
21/07:00am 3.4 -1.9 3.1 98 0.1 S 20 30 11 16 - - 0.6
21/06:30am 3.5 -1.6 3.1 97 0.2 S 19 28 10 15 - - 0.6
21/06:00am 3.8 -1.3 3.1 95 0.3 S 19 26 10 14 - - 0.6
21/05:30am 4.2 -1.4 3.3 94 0.4 S 22 32 12 17 - - 0.6
21/05:00am 4.4 -1.9 3.5 94 0.4 S 26 39 14 21 - - 0.6
21/04:30am 4.8 -2.7 3.6 92 0.5 S 32 59 17 32 - - 0.6
21/04:02am 5.0 -2.6 3.7 91 0.6 S 33 56 18 30 - - 0.6
21/04:00am 5.1 -2.5 3.8 91 0.6 S 33 50 18 27 - - 0.6
21/03:43am 5.0 -1.7 3.7 91 0.6 S 28 46 15 25 - - 0.6
21/03:30am 4.9 -0.7 3.7 92 0.5 S 22 37 12 20 - - 0.6
21/03:00am 4.4 -0.8 3.5 94 0.4 S 20 35 11 19 - - 0.6
21/02:30am 4.1 -2.3 3.1 93 0.4 S 26 39 14 21 - - 0.6
21/02:00am 3.8 -2.3 2.9 94 0.4 S 24 35 13 19 - - 0.6
21/01:30am 4.0 -1.7 3.0 93 0.4 S 22 39 12 21 - - 0.6
21/01:00am 3.9 -1.4 2.9 93 0.4 S 20 35 11 19 - - 0.6
21/12:30am 3.9 -1.8 2.9 93 0.4 S 22 39 12 21 - - 0.6
21/12:00am 4.1 -1.9 3.1 93 0.4 S 24 41 13 22 - - 0.6
 
Date/Time
EST
Temp
°C
App
Temp
°C
Dew
Point
Rel
Hum
%
Delta-T
°C
Wind Press
QNH
hPa
Press
MSL
hPa
Rain
since 9 am
mm
Dir
 
Spd
km/h
Gust
km/h
Spd
kts
Gust
kts
20/11:31pm 4.0 -2.8 3.1 94 0.4 S 28 46 15 25 - - 0.6
20/11:30pm 4.1 -3.1 3.2 94 0.4 S 30 46 16 25 - - 0.6
20/11:03pm 4.0 -2.8 3.3 95 0.3 S 28 46 15 25 - - 0.6
20/11:00pm 3.9 -2.9 3.3 96 0.3 S 28 37 15 20 - - 0.6
20/10:30pm 4.0 -2.4 3.3 95 0.3 S 26 39 14 21 - - 0.6
20/10:00pm 4.2 -2.5 3.5 95 0.3 S 28 48 15 26 - - 0.6
20/09:59pm 4.2 -2.9 3.5 95 0.3 S 30 48 16 26 - - 0.6
20/09:30pm 4.6 -1.2 4.2 97 0.2 S 24 43 13 23 - - 0.6
20/09:00pm 5.0 -0.7 4.7 98 0.1 S 24 41 13 22 - - 0.6
20/08:30pm 5.1 -1.0 4.8 98 0.1 S 26 48 14 26 - - 0.6
20/08:27pm 5.2 -1.2 5.1 99 0.0 S 28 48 15 26 - - 0.6
20/08:00pm 5.6 -0.7 5.5 99 0.0 S 28 41 15 22 - - 0.6
20/07:30pm 5.6 0.0 5.5 99 0.0 S 24 37 13 20 - - 0.6
20/07:00pm 5.8 0.3 5.7 99 0.0 S 24 35 13 19 - - 0.6
20/06:30pm 6.3 1.2 6.2 99 0.0 S 22 35 12 19 - - 0.6
20/06:00pm 6.5 1.9 6.4 99 0.0 S 20 32 11 17 - - 0.6
20/05:30pm 6.8 2.2 6.7 99 0.0 S 20 33 11 18 - - 0.6
20/05:00pm 7.1 1.8 7.0 99 0.0 S 24 33 13 18 - - 0.6
20/04:30pm 7.4 2.2 7.3 99 0.0 S 24 37 13 20 - - 0.6
20/04:00pm 7.8 2.7 7.7 99 0.0 S 24 35 13 19 - - 0.6

Other Formats:

Comma delimited format used in spreadsheet applications
http://www.bom.gov.au/fwo/IDT60801/IDT60801.95956.axf

JavaScript Object Notation format (JSON) in row-major order
http://www.bom.gov.au/fwo/IDT60801/IDT60801.95956.json